Time;durP1;ratioP1;P1;durP2;ratioP2;P2;SDS_P1;SDS_P2;PMS_P1;PMS_P2;Temp;Humidity;BMP_temperature;BMP_pressure;BME280_temperature;BME280_humidity;BME280_pressure;Samples;Min_cycle;Max_cycle;Signal;HPM_P1;HPM_P2
2023/05/18 00:03:00;;;;;;;;;;;;;;;13.81;82.58;99459.83;136060;1275;24195;-64
2023/05/18 00:06:06;;;;;;;;;;;;;;;13.81;82.74;99461.06;136061;1275;22536;-64
2023/05/18 00:09:18;;;;;;;;;;;;;;;13.75;82.02;99465.53;135945;1275;22508;-69
2023/05/18 00:12:20;;;;;;;;;;;;;;;13.69;82.36;99463.64;136059;1275;22510;-68
2023/05/18 00:15:23;;;;;;;;;;;;;;;13.74;81.86;99465.06;131932;1275;5385705;-67
2023/05/18 00:18:26;;;;;;;;;;;;;;;13.72;81.67;99464.49;136007;1275;22490;-67
2023/05/18 00:21:32;;;;;;;;;;;;;;;13.68;81.85;99471.04;135996;1272;22506;-65
2023/05/18 00:24:35;;;;;;;;;;;;;;;13.59;81.76;99465.83;135985;1275;23310;-68
2023/05/18 00:27:39;;;;;;;;;;;;;;;13.55;82.00;99464.83;136014;1275;22646;-69
2023/05/18 00:30:42;;;;;;;;;;;;;;;13.51;82.05;99465.08;136028;1275;22513;-69
2023/05/18 00:33:46;;;;;;;;;;;;;;;13.50;81.82;99470.05;136024;1275;23636;-65
2023/05/18 00:36:49;;;;;;;;;;;;;;;13.54;81.79;99468.77;136041;1275;22497;-68
2023/05/18 00:39:53;;;;;;;;;;;;;;;13.38;82.84;99469.27;136039;1275;22539;-66
2023/05/18 00:42:57;;;;;;;;;;;;;;;13.38;82.34;99471.17;135880;1275;22520;-64
2023/05/18 00:46:00;;;;;;;;;;;;;;;13.30;82.43;99476.02;135886;1275;22521;-64
2023/05/18 00:49:04;;;;;;;;;;;;;;;13.27;82.50;99479.89;135954;1275;22519;-66
2023/05/18 00:52:07;;;;;;;;;;;;;;;13.25;82.71;99484.41;136000;1275;22522;-69
2023/05/18 00:55:11;;;;;;;;;;;;;;;13.24;82.59;99486.40;136022;1275;22502;-69
2023/05/18 00:58:15;;;;;;;;;;;;;;;13.24;82.54;99490.23;136050;1275;22500;-68
2023/05/18 01:01:18;;;;;;;;;;;;;;;13.26;82.83;99491.73;136046;1275;22511;-71
2023/05/18 01:04:23;;;;;;;;;;;;;;;13.27;82.73;99495.18;135999;1275;22513;-64
2023/05/18 01:07:27;;;;;;;;;;;;;;;13.20;82.68;99495.07;136051;1275;22500;-66
2023/05/18 01:10:30;;;;;;;;;;;;;;;13.14;83.23;99497.51;136039;1275;22496;-69
2023/05/18 01:13:34;;;;;;;;;;;;;;;13.14;83.22;99496.67;136064;1275;22522;-66
2023/05/18 01:16:40;;;;;;;;;;;;;;;13.08;83.88;99501.40;135963;1275;22616;-69
2023/05/18 01:19:48;;;;;;;;;;;;;;;13.03;83.31;99508.38;136048;1275;22504;-69
2023/05/18 01:22:51;;;;;;;;;;;;;;;12.95;83.64;99510.96;136005;1275;25384;-63
2023/05/18 01:25:54;;;;;;;;;;;;;;;12.95;83.75;99510.98;136036;1275;22513;-67
2023/05/18 01:28:58;;;;;;;;;;;;;;;12.93;83.49;99519.00;136003;1275;24358;-64
2023/05/18 01:32:03;;;;;;;;;;;;;;;12.95;83.30;99517.64;135937;1275;22540;-65
2023/05/18 01:35:06;;;;;;;;;;;;;;;12.93;83.17;99524.05;136008;1274;23268;-65
2023/05/18 01:38:09;;;;;;;;;;;;;;;12.97;82.84;99526.10;136026;1275;24344;-66
2023/05/18 01:41:13;;;;;;;;;;;;;;;13.00;82.50;99525.56;135915;1275;22666;-65
2023/05/18 01:44:16;;;;;;;;;;;;;;;12.94;82.37;99528.38;136004;1257;22510;-67
2023/05/18 01:47:20;;;;;;;;;;;;;;;12.89;82.30;99529.05;135906;1275;22504;-69
2023/05/18 01:50:23;;;;;;;;;;;;;;;12.89;82.36;99535.72;136032;1275;22537;-65
2023/05/18 01:53:26;;;;;;;;;;;;;;;12.88;82.22;99533.14;135771;1275;22534;-66
2023/05/18 01:56:28;;;;;;;;;;;;;;;12.95;82.03;99537.65;136000;1275;22501;-69
2023/05/18 01:59:31;;;;;;;;;;;;;;;12.97;81.77;99541.04;135918;1275;22498;-69
2023/05/18 02:02:34;;;;;;;;;;;;;;;13.00;81.17;99540.34;136039;1275;22523;-68
2023/05/18 02:05:37;;;;;;;;;;;;;;;13.03;80.47;99538.23;135999;1275;22521;-69
2023/05/18 02:08:41;;;;;;;;;;;;;;;12.98;81.07;99543.45;136005;1275;22497;-69
2023/05/18 02:11:45;;;;;;;;;;;;;;;12.93;81.03;99543.92;136050;1275;22507;-67
2023/05/18 02:14:48;;;;;;;;;;;;;;;12.85;81.07;99545.61;135939;1257;22512;-66
2023/05/18 02:17:56;;;;;;;;;;;;;;;12.81;81.24;99548.95;136004;1275;22497;-67
2023/05/18 02:21:01;;;;;;;;;;;;;;;12.77;81.23;99545.55;136027;1275;22489;-64
2023/05/18 02:24:06;;;;;;;;;;;;;;;12.78;81.01;99553.36;136052;1275;22512;-63
2023/05/18 02:27:14;;;;;;;;;;;;;;;12.80;80.54;99552.41;135888;1275;22490;-64
2023/05/18 02:30:18;;;;;;;;;;;;;;;12.80;79.91;99551.33;136021;1275;25292;-65
2023/05/18 02:33:24;;;;;;;;;;;;;;;12.80;77.31;99552.73;136013;1275;22521;-68
2023/05/18 02:36:38;;;;;;;;;;;;;;;12.65;75.45;99557.66;136011;1275;24428;-69
2023/05/18 02:39:57;;;;;;;;;;;;;;;12.65;71.95;99560.09;135983;1275;22510;-64
2023/05/18 02:43:01;;;;;;;;;;;;;;;12.69;72.03;99565.64;136041;1275;22577;-66
2023/05/18 02:46:04;;;;;;;;;;;;;;;12.67;70.49;99566.98;136024;1275;22512;-65
2023/05/18 02:49:08;;;;;;;;;;;;;;;12.53;71.25;99569.55;136009;1275;22511;-69
2023/05/18 02:52:11;;;;;;;;;;;;;;;12.44;71.44;99567.24;135950;1275;22544;-64
2023/05/18 02:55:16;;;;;;;;;;;;;;;12.43;71.54;99568.54;136027;1275;22502;-64
2023/05/18 02:58:21;;;;;;;;;;;;;;;12.36;71.52;99574.04;135928;1275;22497;-67
2023/05/18 03:01:25;;;;;;;;;;;;;;;12.28;72.22;99571.84;135894;1275;24357;-66
2023/05/18 03:04:30;;;;;;;;;;;;;;;12.26;71.88;99574.61;136023;1275;22499;-66
2023/05/18 03:07:33;;;;;;;;;;;;;;;12.29;72.60;99578.96;136052;1275;22647;-68
2023/05/18 03:10:37;;;;;;;;;;;;;;;12.41;72.89;99580.39;136006;1275;22503;-68
2023/05/18 03:13:42;;;;;;;;;;;;;;;12.43;73.03;99582.05;136005;1275;22505;-69
2023/05/18 03:16:45;;;;;;;;;;;;;;;12.46;72.40;99587.84;136008;1275;22542;-68
2023/05/18 03:19:50;;;;;;;;;;;;;;;12.46;72.26;99584.34;136023;1275;22507;-67
2023/05/18 03:22:55;;;;;;;;;;;;;;;12.45;71.72;99589.64;136029;1275;22497;-67
2023/05/18 03:26:01;;;;;;;;;;;;;;;12.34;71.91;99591.19;136004;1275;22520;-65
2023/05/18 03:29:04;;;;;;;;;;;;;;;12.29;72.17;99592.81;135985;1275;22508;-64
2023/05/18 03:32:08;;;;;;;;;;;;;;;12.31;72.27;99596.59;135925;1275;22501;-67
2023/05/18 03:35:11;;;;;;;;;;;;;;;12.26;71.47;99599.30;135996;1275;24180;-67
2023/05/18 03:38:14;;;;;;;;;;;;;;;12.31;71.87;99599.02;135974;1273;22501;-64
2023/05/18 03:41:21;;;;;;;;;;;;;;;12.47;71.38;99602.71;136003;1275;22506;-68
2023/05/18 03:44:24;;;;;;;;;;;;;;;12.43;71.12;99606.59;136029;1275;22509;-66
2023/05/18 03:47:28;;;;;;;;;;;;;;;12.36;71.22;99609.65;135992;1275;22509;-65
2023/05/18 03:50:32;;;;;;;;;;;;;;;12.31;71.30;99609.05;135934;1257;22506;-67
2023/05/18 03:53:35;;;;;;;;;;;;;;;12.30;71.26;99611.88;135890;1275;22518;-68
2023/05/18 03:56:39;;;;;;;;;;;;;;;12.33;70.95;99611.55;135943;1275;24208;-65
2023/05/18 03:59:42;;;;;;;;;;;;;;;12.30;70.89;99610.81;135995;1275;22497;-66
2023/05/18 04:02:46;;;;;;;;;;;;;;;12.36;70.95;99614.70;135922;1275;24383;-66
2023/05/18 04:05:49;;;;;;;;;;;;;;;12.37;71.38;99617.84;136006;1275;22979;-68
2023/05/18 04:08:53;;;;;;;;;;;;;;;12.49;71.57;99620.16;135940;1275;22512;-66
2023/05/18 04:11:56;;;;;;;;;;;;;;;12.60;71.20;99626.55;135977;1275;22515;-64
2023/05/18 04:14:59;;;;;;;;;;;;;;;12.73;71.03;99630.89;135984;1275;22504;-66
2023/05/18 04:18:07;;;;;;;;;;;;;;;12.82;71.32;99635.62;135999;1275;22513;-63
2023/05/18 04:21:10;;;;;;;;;;;;;;;12.82;71.50;99639.11;135959;1261;24246;-66
2023/05/18 04:24:15;;;;;;;;;;;;;;;12.85;71.52;99640.20;135963;1275;22519;-66
2023/05/18 04:27:19;;;;;;;;;;;;;;;12.81;71.31;99643.58;135971;1275;22516;-65
2023/05/18 04:30:22;;;;;;;;;;;;;;;12.80;70.48;99646.77;135987;1275;22523;-65
2023/05/18 04:33:25;;;;;;;;;;;;;;;12.89;71.20;99647.57;135984;1275;22514;-66
2023/05/18 04:36:30;;;;;;;;;;;;;;;12.99;70.04;99650.30;135964;1275;22511;-66
2023/05/18 04:39:33;;;;;;;;;;;;;;;13.02;68.88;99652.61;135962;1275;22489;-64
2023/05/18 04:42:36;;;;;;;;;;;;;;;12.98;69.20;99656.65;136003;1275;22518;-67
2023/05/18 04:45:41;;;;;;;;;;;;;;;12.98;69.46;99657.19;135917;1275;25649;-70
2023/05/18 04:48:48;;;;;;;;;;;;;;;12.94;69.47;99657.61;135988;1275;22503;-63
2023/05/18 04:51:54;;;;;;;;;;;;;;;12.91;69.39;99656.91;135977;1275;22509;-69
2023/05/18 04:54:57;;;;;;;;;;;;;;;13.02;69.74;99658.72;135965;1275;22510;-65
2023/05/18 04:58:04;;;;;;;;;;;;;;;13.22;68.34;99659.68;135936;1275;22504;-67
2023/05/18 05:01:08;;;;;;;;;;;;;;;13.29;67.76;99663.11;135955;1275;22531;-66
2023/05/18 05:04:10;;;;;;;;;;;;;;;13.33;66.53;99665.17;135903;1258;22501;-65
2023/05/18 05:07:14;;;;;;;;;;;;;;;13.41;68.37;99664.92;135975;1275;25307;-65
2023/05/18 05:10:17;;;;;;;;;;;;;;;13.48;66.15;99670.79;135982;1275;22516;-64
2023/05/18 05:13:21;;;;;;;;;;;;;;;13.49;65.61;99672.15;135962;1258;24267;-64
2023/05/18 05:16:25;;;;;;;;;;;;;;;13.42;66.60;99675.75;135978;1275;22540;-65
2023/05/18 05:19:27;;;;;;;;;;;;;;;13.48;66.55;99677.70;136036;1275;22508;-63
2023/05/18 05:22:30;;;;;;;;;;;;;;;13.47;65.74;99679.67;135981;1275;22513;-63
2023/05/18 05:25:33;;;;;;;;;;;;;;;13.53;65.46;99682.64;135901;1275;22511;-66
2023/05/18 05:28:38;;;;;;;;;;;;;;;13.62;64.83;99682.98;135990;1275;22514;-65
2023/05/18 05:31:40;;;;;;;;;;;;;;;13.56;65.15;99683.53;135963;1258;22537;-65
2023/05/18 05:34:45;;;;;;;;;;;;;;;13.50;63.55;99682.11;135977;1275;22527;-65
2023/05/18 05:37:49;;;;;;;;;;;;;;;13.50;65.00;99685.30;135997;1275;22501;-66
2023/05/18 05:40:53;;;;;;;;;;;;;;;13.45;64.17;99689.27;135977;1275;23293;-67
2023/05/18 05:43:57;;;;;;;;;;;;;;;13.48;64.94;99687.48;135952;1275;22506;-66
2023/05/18 05:47:00;;;;;;;;;;;;;;;13.57;65.13;99685.23;135993;1275;22513;-63
2023/05/18 05:50:04;;;;;;;;;;;;;;;13.77;64.87;99691.04;136010;1275;22502;-65
2023/05/18 05:53:08;;;;;;;;;;;;;;;13.80;63.64;99690.35;135975;1275;22606;-64
2023/05/18 05:56:12;;;;;;;;;;;;;;;13.81;62.87;99693.29;135924;1275;22499;-66
2023/05/18 05:59:16;;;;;;;;;;;;;;;13.74;63.60;99695.81;135893;1275;24046;-65
2023/05/18 06:02:20;;;;;;;;;;;;;;;13.77;62.12;99698.47;135980;1275;22527;-67
2023/05/18 06:05:23;;;;;;;;;;;;;;;13.80;62.05;99701.98;135960;1275;22508;-67
2023/05/18 06:08:27;;;;;;;;;;;;;;;13.81;61.14;99709.48;135974;1275;24202;-66
2023/05/18 06:11:33;;;;;;;;;;;;;;;13.77;59.79;99714.23;135983;1275;22584;-68
2023/05/18 06:14:36;;;;;;;;;;;;;;;13.92;61.68;99717.41;135847;1275;22527;-67
2023/05/18 06:17:42;;;;;;;;;;;;;;;14.09;61.90;99714.79;135902;1275;22504;-67
2023/05/18 06:20:45;;;;;;;;;;;;;;;14.10;59.83;99718.78;135972;1275;22511;-68
2023/05/18 06:23:48;;;;;;;;;;;;;;;14.11;58.81;99722.42;135963;1275;22508;-68
2023/05/18 06:26:51;;;;;;;;;;;;;;;14.08;59.29;99726.13;135977;1274;22503;-69
2023/05/18 06:29:56;;;;;;;;;;;;;;;14.18;59.12;99724.30;135997;1275;25246;-63
2023/05/18 06:33:00;;;;;;;;;;;;;;;14.27;58.77;99725.48;135927;1275;22496;-66
2023/05/18 06:36:03;;;;;;;;;;;;;;;14.40;58.59;99731.17;135963;1275;22609;-66
2023/05/18 06:39:07;;;;;;;;;;;;;;;14.51;59.20;99725.74;135974;1275;25281;-66
2023/05/18 06:42:10;;;;;;;;;;;;;;;14.76;58.52;99728.41;135963;1275;25457;-67
2023/05/18 06:45:13;;;;;;;;;;;;;;;15.01;57.25;99730.15;135993;1275;22505;-67
2023/05/18 06:48:16;;;;;;;;;;;;;;;15.14;57.03;99732.33;135959;1275;22553;-66
2023/05/18 06:51:22;;;;;;;;;;;;;;;15.21;56.29;99733.27;135967;1275;24206;-69
2023/05/18 06:54:28;;;;;;;;;;;;;;;15.07;54.50;99742.43;135970;1275;22502;-66
2023/05/18 06:57:32;;;;;;;;;;;;;;;15.00;55.93;99736.20;135999;1275;22508;-66
2023/05/18 07:00:36;;;;;;;;;;;;;;;15.05;54.60;99744.36;135962;1275;22523;-66
2023/05/18 07:03:39;;;;;;;;;;;;;;;14.89;54.29;99746.94;135876;1275;22509;-64
2023/05/18 07:06:43;;;;;;;;;;;;;;;14.90;55.66;99743.92;135957;1275;22488;-69
2023/05/18 07:09:48;;;;;;;;;;;;;;;14.99;54.21;99747.17;135984;1275;22500;-68
2023/05/18 07:12:52;;;;;;;;;;;;;;;14.97;54.44;99742.95;135973;1275;22497;-70
2023/05/18 07:15:56;;;;;;;;;;;;;;;15.02;54.85;99738.38;135964;1275;22518;-67
2023/05/18 07:19:00;;;;;;;;;;;;;;;15.07;54.84;99740.70;135968;1275;22501;-67
2023/05/18 07:22:04;;;;;;;;;;;;;;;15.12;55.41;99746.52;135842;1275;22510;-67
2023/05/18 07:25:08;;;;;;;;;;;;;;;15.31;57.00;99743.34;135937;1275;22508;-66
2023/05/18 07:28:11;;;;;;;;;;;;;;;15.53;54.70;99748.08;135949;1275;22507;-69
2023/05/18 07:31:15;;;;;;;;;;;;;;;15.55;55.01;99753.03;135979;1275;22494;-65
2023/05/18 07:34:19;;;;;;;;;;;;;;;15.57;54.03;99750.95;135980;1275;22977;-65
2023/05/18 07:37:22;;;;;;;;;;;;;;;15.56;54.03;99751.26;135961;1275;22515;-66
2023/05/18 07:40:26;;;;;;;;;;;;;;;15.54;54.89;99757.38;135943;1275;22508;-66
2023/05/18 07:43:32;;;;;;;;;;;;;;;15.46;54.10;99758.58;135958;1275;25204;-70
2023/05/18 07:46:36;;;;;;;;;;;;;;;15.43;54.69;99757.23;135982;1275;22523;-67
2023/05/18 07:49:39;;;;;;;;;;;;;;;15.45;54.14;99756.86;135975;1275;22538;-68
2023/05/18 07:52:42;;;;;;;;;;;;;;;15.53;53.92;99757.61;135962;1275;22528;-68
2023/05/18 07:55:48;;;;;;;;;;;;;;;15.68;53.31;99762.09;135935;1275;22495;-64
2023/05/18 07:58:52;;;;;;;;;;;;;;;15.67;52.58;99758.79;135901;1275;22529;-71
2023/05/18 08:01:57;;;;;;;;;;;;;;;15.54;52.71;99755.92;135974;1275;22517;-67
2023/05/18 08:05:01;;;;;;;;;;;;;;;15.63;53.64;99762.06;135948;1275;24253;-65
2023/05/18 08:08:05;;;;;;;;;;;;;;;15.69;53.29;99764.44;135964;1275;22495;-65
2023/05/18 08:11:08;;;;;;;;;;;;;;;15.86;53.03;99761.35;136012;1275;22524;-67
2023/05/18 08:14:10;;;;;;;;;;;;;;;15.75;53.09;99766.35;135931;1275;22520;-68
2023/05/18 08:17:14;;;;;;;;;;;;;;;15.77;53.13;99767.29;135941;1275;22503;-66
2023/05/18 08:20:18;;;;;;;;;;;;;;;15.96;52.80;99764.96;135948;1275;22496;-66
2023/05/18 08:23:21;;;;;;;;;;;;;;;16.13;52.45;99766.42;135915;1275;22508;-66
2023/05/18 08:26:25;;;;;;;;;;;;;;;16.12;51.84;99767.74;135925;1275;22511;-66
2023/05/18 08:29:36;;;;;;;;;;;;;;;16.21;53.25;99769.44;135989;1275;22497;-66
2023/05/18 08:32:41;;;;;;;;;;;;;;;16.25;52.07;99770.54;135973;1275;25324;-65
2023/05/18 08:35:43;;;;;;;;;;;;;;;16.29;53.09;99773.99;135908;1275;22512;-67
2023/05/18 08:38:47;;;;;;;;;;;;;;;16.34;52.43;99772.42;135920;1275;22494;-68
2023/05/18 08:41:50;;;;;;;;;;;;;;;16.37;51.32;99773.27;135924;1275;22493;-65
2023/05/18 08:44:53;;;;;;;;;;;;;;;16.33;50.61;99776.39;136004;1275;22505;-69
2023/05/18 08:47:57;;;;;;;;;;;;;;;16.44;51.07;99778.80;135952;1275;22509;-66
2023/05/18 08:51:01;;;;;;;;;;;;;;;16.56;50.32;99779.36;135882;1275;22647;-67
2023/05/18 08:54:04;;;;;;;;;;;;;;;16.40;49.64;99779.40;135986;1275;22561;-69
2023/05/18 08:57:07;;;;;;;;;;;;;;;16.23;50.62;99773.50;135957;1275;22502;-66
2023/05/18 09:00:14;;;;;;;;;;;;;;;16.30;50.07;99773.20;135952;1275;22510;-69
2023/05/18 09:03:19;;;;;;;;;;;;;;;16.33;51.13;99769.48;135957;1275;22497;-65
2023/05/18 09:06:23;;;;;;;;;;;;;;;16.39;49.85;99774.21;135982;1275;25208;-65
2023/05/18 09:09:27;;;;;;;;;;;;;;;16.37;50.80;99775.05;135971;1275;22494;-64
2023/05/18 09:12:31;;;;;;;;;;;;;;;16.43;51.68;99774.25;135940;1275;25744;-66
2023/05/18 09:15:35;;;;;;;;;;;;;;;16.41;51.72;99777.20;135955;1275;22508;-66
2023/05/18 09:18:38;;;;;;;;;;;;;;;16.37;50.93;99781.58;135918;1275;26599;-64
2023/05/18 09:21:42;;;;;;;;;;;;;;;16.07;50.42;99783.42;135976;1275;22513;-64
2023/05/18 09:24:47;;;;;;;;;;;;;;;15.99;52.03;99785.03;135987;1275;22513;-67
2023/05/18 09:27:52;;;;;;;;;;;;;;;15.97;50.98;99787.29;135931;1275;22564;-67
2023/05/18 09:30:56;;;;;;;;;;;;;;;15.90;51.54;99789.48;135935;1275;22542;-64
2023/05/18 09:34:00;;;;;;;;;;;;;;;15.86;51.86;99785.72;135967;1275;22588;-66
2023/05/18 09:37:03;;;;;;;;;;;;;;;15.84;52.21;99784.48;135933;1275;22514;-67
2023/05/18 09:40:10;;;;;;;;;;;;;;;15.82;52.02;99786.02;135966;1275;24021;-64
2023/05/18 09:43:13;;;;;;;;;;;;;;;15.75;52.16;99789.65;135983;1275;22511;-66
2023/05/18 09:46:16;;;;;;;;;;;;;;;15.74;52.17;99790.20;135882;1263;24226;-67
2023/05/18 09:49:20;;;;;;;;;;;;;;;15.74;52.33;99793.21;135964;1258;22557;-63
2023/05/18 09:52:24;;;;;;;;;;;;;;;15.86;52.29;99797.09;135950;1275;22576;-69
2023/05/18 09:55:27;;;;;;;;;;;;;;;15.85;52.40;99794.12;135952;1275;22513;-66
2023/05/18 09:58:31;;;;;;;;;;;;;;;15.89;52.36;99800.92;135932;1264;22496;-67
2023/05/18 10:01:36;;;;;;;;;;;;;;;16.12;52.68;99801.78;135930;1275;22494;-67
2023/05/18 10:04:39;;;;;;;;;;;;;;;15.87;52.63;99801.19;135969;1275;22519;-66
2023/05/18 10:07:43;;;;;;;;;;;;;;;15.68;52.90;99804.39;135851;1275;22505;-67
2023/05/18 10:10:46;;;;;;;;;;;;;;;15.62;52.99;99807.79;135925;1275;22553;-68
2023/05/18 10:13:56;;;;;;;;;;;;;;;15.62;52.94;99809.55;135820;1275;22507;-70
2023/05/18 10:17:00;;;;;;;;;;;;;;;15.57;53.76;99808.99;135990;1275;22729;-64
2023/05/18 10:20:04;;;;;;;;;;;;;;;15.22;54.39;99814.58;135986;1275;22497;-68
2023/05/18 10:23:08;;;;;;;;;;;;;;;14.98;55.26;99817.73;135976;1275;22487;-69
2023/05/18 10:26:11;;;;;;;;;;;;;;;15.25;54.34;99817.74;135972;1275;24258;-66
2023/05/18 10:29:14;;;;;;;;;;;;;;;15.26;54.72;99815.80;135895;1258;22510;-69
2023/05/18 10:32:37;;;;;;;;;;;;;;;15.29;55.00;99812.39;135952;1275;22607;-70
2023/05/18 10:35:40;;;;;;;;;;;;;;;15.23;55.17;99813.69;135991;1263;24219;-66
2023/05/18 10:38:45;;;;;;;;;;;;;;;14.80;57.04;99817.25;136005;1275;22530;-70
2023/05/18 10:41:48;;;;;;;;;;;;;;;15.07;55.72;99812.91;135897;1275;22514;-70
2023/05/18 10:44:54;;;;;;;;;;;;;;;15.07;55.90;99812.05;135968;1275;22504;-66
2023/05/18 10:47:58;;;;;;;;;;;;;;;15.11;55.26;99807.02;136017;1275;22489;-66
2023/05/18 10:51:04;;;;;;;;;;;;;;;15.20;55.49;99808.74;135884;1275;24012;-65
2023/05/18 10:54:07;;;;;;;;;;;;;;;15.47;55.50;99797.64;135979;1264;22519;-66
2023/05/18 10:57:14;;;;;;;;;;;;;;;15.56;55.95;99794.23;135959;1275;22592;-68
2023/05/18 11:00:18;;;;;;;;;;;;;;;15.79;55.75;99795.59;135949;1275;22513;-66
2023/05/18 11:03:22;;;;;;;;;;;;;;;15.78;54.73;99796.34;135842;1275;22526;-66
2023/05/18 11:06:26;;;;;;;;;;;;;;;15.73;55.50;99791.86;135984;1275;22527;-65
2023/05/18 11:09:29;;;;;;;;;;;;;;;15.91;55.79;99793.33;135990;1275;22520;-68
2023/05/18 11:12:52;;;;;;;;;;;;;;;15.93;53.45;99792.35;135884;1275;22494;-67
2023/05/18 11:15:59;;;;;;;;;;;;;;;15.69;54.28;99794.99;135976;1275;25354;-64
2023/05/18 11:19:03;;;;;;;;;;;;;;;15.57;53.78;99799.43;135943;1275;23295;-65
2023/05/18 11:22:06;;;;;;;;;;;;;;;15.49;53.26;99797.88;135840;1275;22514;-69
2023/05/18 11:25:10;;;;;;;;;;;;;;;15.49;53.71;99798.23;136007;1275;22502;-66
2023/05/18 11:28:15;;;;;;;;;;;;;;;15.53;54.09;99795.98;135982;1275;22503;-68
2023/05/18 11:31:18;;;;;;;;;;;;;;;15.58;54.30;99796.21;136006;1275;22510;-68
2023/05/18 11:34:21;;;;;;;;;;;;;;;15.72;54.66;99802.15;135896;1275;22518;-66
2023/05/18 11:37:24;;;;;;;;;;;;;;;15.83;53.57;99806.43;135905;1275;22491;-68
2023/05/18 11:40:28;;;;;;;;;;;;;;;15.88;52.76;99804.48;135983;1275;22509;-71
2023/05/18 11:43:31;;;;;;;;;;;;;;;15.85;52.60;99806.45;135967;1275;22519;-66
2023/05/18 11:46:35;;;;;;;;;;;;;;;15.92;53.77;99813.73;135793;1275;22509;-67
2023/05/18 11:49:38;;;;;;;;;;;;;;;15.98;52.80;99809.79;135996;1275;22508;-64
2023/05/18 11:52:42;;;;;;;;;;;;;;;16.04;53.41;99806.08;136009;1275;22564;-67
2023/05/18 11:55:46;;;;;;;;;;;;;;;16.10;54.08;99798.26;135971;1275;25470;-67
2023/05/18 11:58:48;;;;;;;;;;;;;;;16.08;53.15;99804.39;135988;1275;22484;-70
2023/05/18 12:01:52;;;;;;;;;;;;;;;16.00;53.02;99805.13;135993;1275;22610;-68
2023/05/18 12:04:55;;;;;;;;;;;;;;;15.82;51.43;99811.94;135990;1275;22643;-69
2023/05/18 12:07:59;;;;;;;;;;;;;;;15.67;52.03;99808.55;135972;1275;22536;-65
2023/05/18 12:11:02;;;;;;;;;;;;;;;15.64;52.09;99808.50;136043;1275;22507;-65
2023/05/18 12:14:08;;;;;;;;;;;;;;;15.68;52.22;99809.13;134537;1275;5380816;-64
2023/05/18 12:17:11;;;;;;;;;;;;;;;15.75;52.20;99815.38;135965;1275;24258;-66
2023/05/18 12:20:13;;;;;;;;;;;;;;;15.74;52.16;99813.30;135992;1275;22506;-67
2023/05/18 12:23:17;;;;;;;;;;;;;;;15.80;51.91;99815.63;135976;1275;24203;-67
2023/05/18 12:26:24;;;;;;;;;;;;;;;15.77;52.45;99813.31;135929;1275;22517;-67
2023/05/18 12:29:29;;;;;;;;;;;;;;;15.89;52.45;99808.82;135973;1275;22508;-68
2023/05/18 12:32:34;;;;;;;;;;;;;;;15.88;52.54;99814.70;135951;1275;22507;-69
2023/05/18 12:35:37;;;;;;;;;;;;;;;15.93;52.40;99811.05;135983;1275;23018;-64
2023/05/18 12:38:41;;;;;;;;;;;;;;;15.97;53.26;99805.10;136025;1275;22716;-66
2023/05/18 12:41:45;;;;;;;;;;;;;;;16.13;52.55;99805.98;135967;1275;22504;-67
2023/05/18 12:44:49;;;;;;;;;;;;;;;16.09;50.52;99806.11;135995;1275;22505;-69
2023/05/18 12:47:56;;;;;;;;;;;;;;;16.12;51.95;99800.41;135997;1275;25210;-66
2023/05/18 12:50:58;;;;;;;;;;;;;;;16.17;51.60;99807.29;135974;1275;22511;-64
2023/05/18 12:54:03;;;;;;;;;;;;;;;16.24;52.23;99803.30;135956;1275;22534;-64
2023/05/18 12:57:06;;;;;;;;;;;;;;;16.30;52.09;99808.02;135964;1275;22543;-68
2023/05/18 13:00:10;;;;;;;;;;;;;;;16.36;52.65;99801.92;135979;1275;22533;-68
2023/05/18 13:03:13;;;;;;;;;;;;;;;16.55;52.21;99802.72;135904;1275;22450;-67
2023/05/18 13:06:20;;;;;;;;;;;;;;;16.56;52.10;99803.55;135999;1275;23142;-66
2023/05/18 13:09:23;;;;;;;;;;;;;;;16.53;52.19;99800.96;136018;1275;22511;-65
2023/05/18 13:12:28;;;;;;;;;;;;;;;16.44;52.18;99798.88;136005;1275;22508;-66
2023/05/18 13:15:31;;;;;;;;;;;;;;;16.31;52.82;99797.73;135932;1275;22495;-64
2023/05/18 13:18:34;;;;;;;;;;;;;;;16.39;54.23;99796.77;136068;1275;22512;-66
2023/05/18 13:21:37;;;;;;;;;;;;;;;16.48;54.46;99795.61;135873;1275;22514;-64
2023/05/18 13:24:41;;;;;;;;;;;;;;;16.63;55.19;99796.71;136015;1275;22508;-67
2023/05/18 13:27:47;;;;;;;;;;;;;;;16.64;54.81;99797.70;136012;1275;22516;-65
2023/05/18 13:30:51;;;;;;;;;;;;;;;16.74;55.87;99798.39;135978;1275;22518;-65
2023/05/18 13:33:56;;;;;;;;;;;;;;;16.88;54.60;99802.72;136031;1275;22517;-68
2023/05/18 13:37:00;;;;;;;;;;;;;;;16.89;54.68;99802.94;136005;1275;22502;-65
2023/05/18 13:40:04;;;;;;;;;;;;;;;16.83;54.81;99802.14;135965;1275;22515;-66
2023/05/18 13:43:08;;;;;;;;;;;;;;;16.93;55.48;99797.59;136035;1275;22508;-69
2023/05/18 13:46:12;;;;;;;;;;;;;;;16.84;54.48;99801.02;136054;1275;22509;-66
2023/05/18 13:49:15;;;;;;;;;;;;;;;16.76;54.61;99803.70;136060;1275;22497;-68
2023/05/18 13:52:19;;;;;;;;;;;;;;;16.75;55.22;99805.57;135997;1275;22538;-71
2023/05/18 13:55:22;;;;;;;;;;;;;;;16.62;55.29;99800.61;136086;1275;22497;-67
2023/05/18 13:58:27;;;;;;;;;;;;;;;16.55;55.11;99800.63;136030;1275;22531;-68
2023/05/18 14:01:31;;;;;;;;;;;;;;;16.43;55.64;99801.42;136050;1275;25376;-65
2023/05/18 14:04:35;;;;;;;;;;;;;;;16.37;56.60;99802.38;136019;1275;22500;-67
2023/05/18 14:07:38;;;;;;;;;;;;;;;16.28;56.67;99802.98;136078;1275;22529;-66
2023/05/18 14:10:46;;;;;;;;;;;;;;;16.36;57.46;99803.71;136065;1275;22971;-68
2023/05/18 14:13:53;;;;;;;;;;;;;;;16.35;56.52;99804.45;136055;1275;22549;-66
2023/05/18 14:16:56;;;;;;;;;;;;;;;16.36;58.06;99807.02;136057;1275;22505;-63
2023/05/18 14:19:59;;;;;;;;;;;;;;;16.47;58.53;99805.42;136057;1275;22527;-66
2023/05/18 14:23:01;;;;;;;;;;;;;;;16.62;57.52;99806.48;136048;1275;22542;-67
2023/05/18 14:26:05;;;;;;;;;;;;;;;16.68;57.71;99805.02;136078;1275;22612;-65
2023/05/18 14:29:08;;;;;;;;;;;;;;;16.62;57.59;99803.13;135994;1275;24356;-66
2023/05/18 14:32:11;;;;;;;;;;;;;;;16.50;57.43;99803.29;136071;1275;22504;-63
2023/05/18 14:35:14;;;;;;;;;;;;;;;16.32;58.09;99802.69;136043;1275;22509;-65
2023/05/18 14:38:17;;;;;;;;;;;;;;;16.14;58.73;99807.70;136015;1257;22511;-67
2023/05/18 14:41:21;;;;;;;;;;;;;;;15.99;57.33;99804.97;136026;1275;22493;-67
2023/05/18 14:44:24;;;;;;;;;;;;;;;15.67;57.17;99806.18;136028;1275;22518;-65
2023/05/18 14:47:28;;;;;;;;;;;;;;;15.55;58.74;99803.30;136080;1275;22534;-65
2023/05/18 14:50:31;;;;;;;;;;;;;;;15.50;59.23;99806.26;136077;1275;22564;-63
2023/05/18 14:53:34;;;;;;;;;;;;;;;15.50;60.45;99805.40;136062;1275;22522;-67
2023/05/18 14:56:37;;;;;;;;;;;;;;;15.53;60.87;99803.59;135996;1257;22518;-66
2023/05/18 14:59:42;;;;;;;;;;;;;;;15.58;61.05;99802.21;136069;1265;24209;-66
2023/05/18 15:02:47;;;;;;;;;;;;;;;15.43;61.59;99806.40;136030;1275;25326;-66
2023/05/18 15:05:50;;;;;;;;;;;;;;;15.46;62.03;99802.68;136107;1275;22533;-68
2023/05/18 15:08:53;;;;;;;;;;;;;;;15.47;62.61;99803.80;136021;1275;22517;-66
2023/05/18 15:11:57;;;;;;;;;;;;;;;15.55;62.54;99800.65;135917;1275;22501;-68
2023/05/18 15:15:04;;;;;;;;;;;;;;;15.50;62.43;99804.69;136059;1275;22607;-68
2023/05/18 15:18:08;;;;;;;;;;;;;;;15.54;62.75;99801.81;135972;1275;22516;-67
2023/05/18 15:21:11;;;;;;;;;;;;;;;15.49;63.14;99806.47;136067;1257;24343;-70
2023/05/18 15:24:14;;;;;;;;;;;;;;;15.41;63.75;99811.95;136064;1275;22526;-66
2023/05/18 15:27:17;;;;;;;;;;;;;;;15.41;64.43;99809.67;136086;1257;22566;-68
2023/05/18 15:30:20;;;;;;;;;;;;;;;15.34;64.53;99806.95;136054;1257;22507;-68
2023/05/18 15:33:23;;;;;;;;;;;;;;;15.32;64.94;99808.33;136073;1257;22494;-64
2023/05/18 15:36:25;;;;;;;;;;;;;;;15.31;66.11;99806.79;136018;1275;22511;-68
2023/05/18 15:39:30;;;;;;;;;;;;;;;15.44;65.88;99805.79;136077;1254;22508;-68
2023/05/18 15:42:34;;;;;;;;;;;;;;;15.54;66.05;99807.42;136000;1275;22524;-67
2023/05/18 15:45:36;;;;;;;;;;;;;;;15.58;65.36;99803.23;136063;1275;23273;-66